sensor_id;sensor_type;location;lat;lon;timestamp;pressure;altitude;pressure_sealevel;temperature;humidity
20755;BME280;26385;48.470;7.938;2022-09-25T00:00:35;99527.69;;;15.59;95.35
20755;BME280;26385;48.470;7.938;2022-09-25T00:03:00;99529.44;;;15.57;95.17
20755;BME280;26385;48.470;7.938;2022-09-25T00:05:26;99528.53;;;15.59;94.91
20755;BME280;26385;48.470;7.938;2022-09-25T00:07:51;99526.84;;;15.54;94.87
20755;BME280;26385;48.470;7.938;2022-09-25T00:10:17;99527.75;;;15.51;95.35
20755;BME280;26385;48.470;7.938;2022-09-25T00:12:43;99532.13;;;15.51;94.78
20755;BME280;26385;48.470;7.938;2022-09-25T00:15:08;99532.13;;;15.51;94.55
20755;BME280;26385;48.470;7.938;2022-09-25T00:17:34;99536.50;;;15.47;94.64
20755;BME280;26385;48.470;7.938;2022-09-25T00:19:59;99532.13;;;15.49;94.53
20755;BME280;26385;48.470;7.938;2022-09-25T00:22:24;99539.09;;;15.45;95.40
20755;BME280;26385;48.470;7.938;2022-09-25T00:24:51;99532.16;;;15.44;94.73
20755;BME280;26385;48.470;7.938;2022-09-25T00:27:17;99529.59;;;15.38;94.97
20755;BME280;26385;48.470;7.938;2022-09-25T00:29:43;99532.22;;;15.38;94.95
20755;BME280;26385;48.470;7.938;2022-09-25T00:32:10;99531.41;;;15.33;95.33
20755;BME280;26385;48.470;7.938;2022-09-25T00:34:36;99529.66;;;15.32;95.50
20755;BME280;26385;48.470;7.938;2022-09-25T00:37:02;99525.34;;;15.31;95.70
20755;BME280;26385;48.470;7.938;2022-09-25T00:39:27;99528.81;;;15.32;94.87
20755;BME280;26385;48.470;7.938;2022-09-25T00:41:53;99532.28;;;15.29;94.93
20755;BME280;26385;48.470;7.938;2022-09-25T00:44:56;99525.34;;;15.28;95.00
20755;BME280;26385;48.470;7.938;2022-09-25T00:47:49;99529.69;;;15.29;95.08
20755;BME280;26385;48.470;7.938;2022-09-25T00:50:28;99525.31;;;15.30;94.83
20755;BME280;26385;48.470;7.938;2022-09-25T00:53:18;99518.41;;;15.30;94.67
20755;BME280;26385;48.470;7.938;2022-09-25T00:55:43;99519.25;;;15.32;94.67
20755;BME280;26385;48.470;7.938;2022-09-25T00:58:12;99514.03;;;15.28;94.62
20755;BME280;26385;48.470;7.938;2022-09-25T01:00:39;99508.84;;;15.26;94.82
20755;BME280;26385;48.470;7.938;2022-09-25T01:03:06;99518.41;;;15.27;94.85
20755;BME280;26385;48.470;7.938;2022-09-25T01:05:34;99507.16;;;15.22;94.90
20755;BME280;26385;48.470;7.938;2022-09-25T01:08:01;99511.47;;;15.21;95.26
20755;BME280;26385;48.470;7.938;2022-09-25T01:10:27;99508.88;;;15.21;95.40
20755;BME280;26385;48.470;7.938;2022-09-25T01:12:54;99518.44;;;15.24;94.96
20755;BME280;26385;48.470;7.938;2022-09-25T01:15:41;99514.16;;;15.12;95.57
20755;BME280;26385;48.470;7.938;2022-09-25T01:18:22;99510.69;;;15.15;95.78
20755;BME280;26385;48.470;7.938;2022-09-25T01:21:23;99515.03;;;15.13;95.25
20755;BME280;26385;48.470;7.938;2022-09-25T01:26:53;99510.69;;;15.16;95.57
20755;BME280;26385;48.470;7.938;2022-09-25T01:32:26;99509.81;;;15.16;95.45
20755;BME280;26385;48.470;7.938;2022-09-25T01:35:01;99510.69;;;15.16;95.52
20755;BME280;26385;48.470;7.938;2022-09-25T01:40:06;99512.38;;;15.19;95.39
20755;BME280;26385;48.470;7.938;2022-09-25T01:42:54;99523.72;;;15.16;95.74
20755;BME280;26385;48.470;7.938;2022-09-25T01:45:27;99512.41;;;15.16;95.59
20755;BME280;26385;48.470;7.938;2022-09-25T01:47:55;99511.56;;;15.15;95.47
20755;BME280;26385;48.470;7.938;2022-09-25T01:50:34;99510.72;;;15.13;95.57
20755;BME280;26385;48.470;7.938;2022-09-25T01:53:03;99504.63;;;15.14;95.54
20755;BME280;26385;48.470;7.938;2022-09-25T01:55:39;99499.38;;;15.16;95.49
20755;BME280;26385;48.470;7.938;2022-09-25T01:58:14;99500.25;;;15.12;95.55
20755;BME280;26385;48.470;7.938;2022-09-25T02:00:48;99508.09;;;15.10;95.98
20755;BME280;26385;48.470;7.938;2022-09-25T02:03:29;99505.50;;;15.10;96.17
20755;BME280;26385;48.470;7.938;2022-09-25T02:06:01;99502.06;;;15.08;95.39
20755;BME280;26385;48.470;7.938;2022-09-25T02:08:33;99499.41;;;15.10;95.45
20755;BME280;26385;48.470;7.938;2022-09-25T02:11:01;99507.25;;;15.10;95.23
20755;BME280;26385;48.470;7.938;2022-09-25T02:13:37;99506.41;;;15.08;95.30
20755;BME280;26385;48.470;7.938;2022-09-25T02:16:09;99504.69;;;15.05;95.18
20755;BME280;26385;48.470;7.938;2022-09-25T02:18:35;99509.03;;;15.06;95.48
20755;BME280;26385;48.470;7.938;2022-09-25T02:21:28;99508.09;;;15.12;94.94
20755;BME280;26385;48.470;7.938;2022-09-25T02:24:18;99509.03;;;15.06;95.58
20755;BME280;26385;48.470;7.938;2022-09-25T02:26:45;99508.16;;;15.06;96.02
20755;BME280;26385;48.470;7.938;2022-09-25T02:29:11;99504.69;;;15.07;96.11
20755;BME280;26385;48.470;7.938;2022-09-25T02:31:41;99494.25;;;15.07;95.87
20755;BME280;26385;48.470;7.938;2022-09-25T02:34:07;99498.41;;;15.28;100.00
20755;BME280;26385;48.470;7.938;2022-09-25T02:36:33;99499.81;;;15.65;100.00
20755;BME280;26385;48.470;7.938;2022-09-25T02:38:59;99504.66;;;15.96;100.00
20755;BME280;26385;48.470;7.938;2022-09-25T02:41:39;99493.88;;;16.25;98.63
20755;BME280;26385;48.470;7.938;2022-09-25T02:49:54;99499.56;;;15.87;92.81
20755;BME280;26385;48.470;7.938;2022-09-25T02:55:26;99487.75;;;15.49;92.67
20755;BME280;26385;48.470;7.938;2022-09-25T02:58:06;99489.59;;;15.41;93.27
20755;BME280;26385;48.470;7.938;2022-09-25T03:00:36;99494.91;;;15.30;93.65
20755;BME280;26385;48.470;7.938;2022-09-25T03:03:03;99493.22;;;15.23;93.96
20755;BME280;26385;48.470;7.938;2022-09-25T03:05:31;99497.66;;;15.12;95.21
20755;BME280;26385;48.470;7.938;2022-09-25T03:07:57;99495.06;;;15.10;95.37
20755;BME280;26385;48.470;7.938;2022-09-25T03:10:41;99503.75;;;15.11;94.78
20755;BME280;26385;48.470;7.938;2022-09-25T03:15:44;99495.16;;;15.01;95.07
20755;BME280;26385;48.470;7.938;2022-09-25T03:18:11;99493.47;;;14.97;95.02
20755;BME280;26385;48.470;7.938;2022-09-25T03:20:37;99502.22;;;14.85;95.71
20755;BME280;26385;48.470;7.938;2022-09-25T03:23:03;99499.66;;;14.82;95.80
20755;BME280;26385;48.470;7.938;2022-09-25T03:25:28;99504.00;;;14.79;96.22
20755;BME280;26385;48.470;7.938;2022-09-25T03:27:53;99501.38;;;14.83;95.90
20755;BME280;26385;48.470;7.938;2022-09-25T03:30:19;99494.44;;;14.82;95.94
20755;BME280;26385;48.470;7.938;2022-09-25T03:32:44;99490.97;;;14.80;96.10
20755;BME280;26385;48.470;7.938;2022-09-25T03:35:10;99497.94;;;14.77;96.40
20755;BME280;26385;48.470;7.938;2022-09-25T03:37:35;99484.03;;;14.76;97.02
20755;BME280;26385;48.470;7.938;2022-09-25T03:40:00;99485.75;;;14.77;96.99
20755;BME280;26385;48.470;7.938;2022-09-25T03:42:26;99493.56;;;14.79;97.00
20755;BME280;26385;48.470;7.938;2022-09-25T03:44:52;99486.66;;;14.76;97.60
20755;BME280;26385;48.470;7.938;2022-09-25T03:47:17;99484.94;;;14.74;97.96
20755;BME280;26385;48.470;7.938;2022-09-25T03:49:42;99484.06;;;14.73;97.75
20755;BME280;26385;48.470;7.938;2022-09-25T03:52:08;99485.88;;;14.65;98.16
20755;BME280;26385;48.470;7.938;2022-09-25T03:54:34;99487.56;;;14.69;98.81
20755;BME280;26385;48.470;7.938;2022-09-25T03:56:59;99488.41;;;14.71;98.52
20755;BME280;26385;48.470;7.938;2022-09-25T03:59:24;99486.69;;;14.69;98.82
20755;BME280;26385;48.470;7.938;2022-09-25T04:01:50;99482.31;;;14.74;98.82
20755;BME280;26385;48.470;7.938;2022-09-25T04:04:16;99485.78;;;14.74;98.49
20755;BME280;26385;48.470;7.938;2022-09-25T04:06:41;99491.00;;;14.71;98.23
20755;BME280;26385;48.470;7.938;2022-09-25T04:09:06;99491.09;;;14.60;98.86
20755;BME280;26385;48.470;7.938;2022-09-25T04:11:31;99495.44;;;14.63;99.09
20755;BME280;26385;48.470;7.938;2022-09-25T04:13:57;99493.69;;;14.62;99.25
20755;BME280;26385;48.470;7.938;2022-09-25T04:16:22;99502.44;;;14.55;98.85
20755;BME280;26385;48.470;7.938;2022-09-25T04:18:48;99504.13;;;14.59;99.86
20755;BME280;26385;48.470;7.938;2022-09-25T04:21:14;99508.47;;;14.63;99.12
20755;BME280;26385;48.470;7.938;2022-09-25T04:23:39;99499.78;;;14.64;99.17
20755;BME280;26385;48.470;7.938;2022-09-25T04:26:06;99508.41;;;14.69;98.88
20755;BME280;26385;48.470;7.938;2022-09-25T04:28:31;99507.53;;;14.69;98.74
20755;BME280;26385;48.470;7.938;2022-09-25T04:30:57;99511.03;;;14.66;98.37
20755;BME280;26385;48.470;7.938;2022-09-25T04:33:22;99510.19;;;14.61;97.55
20755;BME280;26385;48.470;7.938;2022-09-25T04:36:06;99506.75;;;14.59;98.94
20755;BME280;26385;48.470;7.938;2022-09-25T04:38:31;99503.28;;;14.58;98.46
20755;BME280;26385;48.470;7.938;2022-09-25T04:40:58;99507.56;;;14.62;98.17
20755;BME280;26385;48.470;7.938;2022-09-25T04:43:26;99509.31;;;14.65;98.08
20755;BME280;26385;48.470;7.938;2022-09-25T04:45:51;99508.47;;;14.63;97.82
20755;BME280;26385;48.470;7.938;2022-09-25T04:48:16;99511.91;;;14.68;97.18
20755;BME280;26385;48.470;7.938;2022-09-25T04:50:47;99514.56;;;14.63;96.99
20755;BME280;26385;48.470;7.938;2022-09-25T04:53:12;99518.91;;;14.63;97.39
20755;BME280;26385;48.470;7.938;2022-09-25T04:55:37;99517.13;;;14.62;97.40
20755;BME280;26385;48.470;7.938;2022-09-25T04:58:04;99521.53;;;14.58;97.46
20755;BME280;26385;48.470;7.938;2022-09-25T05:00:31;99524.16;;;14.55;97.43
20755;BME280;26385;48.470;7.938;2022-09-25T05:02:57;99522.41;;;14.54;97.46
20755;BME280;26385;48.470;7.938;2022-09-25T05:05:22;99527.66;;;14.50;97.78
20755;BME280;26385;48.470;7.938;2022-09-25T05:07:54;99519.81;;;14.50;97.84
20755;BME280;26385;48.470;7.938;2022-09-25T05:10:21;99526.78;;;14.51;97.89
20755;BME280;26385;48.470;7.938;2022-09-25T05:12:47;99521.56;;;14.49;97.85
20755;BME280;26385;48.470;7.938;2022-09-25T05:15:13;99517.03;;;14.80;100.00
20755;BME280;26385;48.470;7.938;2022-09-25T05:17:38;99518.53;;;15.15;100.00
20755;BME280;26385;48.470;7.938;2022-09-25T05:20:04;99507.00;;;15.40;100.00
20755;BME280;26385;48.470;7.938;2022-09-25T05:22:29;99511.22;;;15.52;97.60
20755;BME280;26385;48.470;7.938;2022-09-25T05:24:55;99506.69;;;15.71;96.31
20755;BME280;26385;48.470;7.938;2022-09-25T05:27:20;99505.75;;;15.78;92.35
20755;BME280;26385;48.470;7.938;2022-09-25T05:29:46;99513.78;;;15.58;91.51
20755;BME280;26385;48.470;7.938;2022-09-25T05:32:12;99513.94;;;15.40;91.73
20755;BME280;26385;48.470;7.938;2022-09-25T05:34:37;99514.16;;;15.15;92.46
20755;BME280;26385;48.470;7.938;2022-09-25T05:37:02;99515.19;;;14.98;93.59
20755;BME280;26385;48.470;7.938;2022-09-25T05:39:28;99513.53;;;14.84;94.14
20755;BME280;26385;48.470;7.938;2022-09-25T05:41:53;99514.44;;;14.77;94.37
20755;BME280;26385;48.470;7.938;2022-09-25T05:44:18;99519.69;;;14.73;95.34
20755;BME280;26385;48.470;7.938;2022-09-25T05:46:45;99514.50;;;14.70;95.29
20755;BME280;26385;48.470;7.938;2022-09-25T05:49:11;99518.91;;;14.63;95.72
20755;BME280;26385;48.470;7.938;2022-09-25T05:51:36;99525.88;;;14.58;96.19
20755;BME280;26385;48.470;7.938;2022-09-25T05:54:02;99521.53;;;14.55;96.61
20755;BME280;26385;48.470;7.938;2022-09-25T05:56:28;99521.53;;;14.58;96.54
20755;BME280;26385;48.470;7.938;2022-09-25T05:58:53;99528.47;;;14.59;96.39
20755;BME280;26385;48.470;7.938;2022-09-25T06:01:19;99523.28;;;14.55;96.69
20755;BME280;26385;48.470;7.938;2022-09-25T06:03:45;99528.47;;;14.53;97.37
20755;BME280;26385;48.470;7.938;2022-09-25T06:06:10;99533.69;;;14.53;97.37
20755;BME280;26385;48.470;7.938;2022-09-25T06:08:36;99535.41;;;14.54;97.37
20755;BME280;26385;48.470;7.938;2022-09-25T06:11:02;99538.03;;;14.56;97.02
20755;BME280;26385;48.470;7.938;2022-09-25T06:13:29;99541.50;;;14.58;96.74
20755;BME280;26385;48.470;7.938;2022-09-25T06:15:57;99542.41;;;14.55;96.56
20755;BME280;26385;48.470;7.938;2022-09-25T06:18:24;99538.94;;;14.50;96.66
20755;BME280;26385;48.470;7.938;2022-09-25T06:20:50;99551.94;;;14.52;97.04
20755;BME280;26385;48.470;7.938;2022-09-25T06:23:17;99551.94;;;14.55;96.98
20755;BME280;26385;48.470;7.938;2022-09-25T06:25:43;99546.75;;;14.55;97.03
20755;BME280;26385;48.470;7.938;2022-09-25T06:28:09;99550.19;;;14.54;97.56
20755;BME280;26385;48.470;7.938;2022-09-25T06:30:36;99551.09;;;14.51;97.63
20755;BME280;26385;48.470;7.938;2022-09-25T06:33:07;99557.19;;;14.46;98.26
20755;BME280;26385;48.470;7.938;2022-09-25T06:35:35;99554.59;;;14.35;98.14
20755;BME280;26385;48.470;7.938;2022-09-25T06:38:04;99561.56;;;14.31;99.40
20755;BME280;26385;48.470;7.938;2022-09-25T06:40:30;99554.63;;;14.33;99.11
20755;BME280;26385;48.470;7.938;2022-09-25T06:42:56;99545.03;;;14.35;99.85
20755;BME280;26385;48.470;7.938;2022-09-25T06:45:22;99542.44;;;14.37;99.86
20755;BME280;26385;48.470;7.938;2022-09-25T06:47:47;99543.28;;;14.42;99.92
20755;BME280;26385;48.470;7.938;2022-09-25T06:50:12;99544.16;;;14.47;99.69
20755;BME280;26385;48.470;7.938;2022-09-25T06:52:42;99552.03;;;14.27;100.00
20755;BME280;26385;48.470;7.938;2022-09-25T06:55:08;99552.84;;;14.37;100.00
20755;BME280;26385;48.470;7.938;2022-09-25T06:57:33;99546.75;;;14.43;100.00
20755;BME280;26385;48.470;7.938;2022-09-25T07:00:02;99550.25;;;14.39;99.96
20755;BME280;26385;48.470;7.938;2022-09-25T07:02:28;99553.72;;;14.41;99.56
20755;BME280;26385;48.470;7.938;2022-09-25T07:05:11;99557.16;;;14.43;100.00
20755;BME280;26385;48.470;7.938;2022-09-25T07:07:37;99555.44;;;14.51;100.00
20755;BME280;26385;48.470;7.938;2022-09-25T07:10:03;99552.81;;;14.57;100.00
20755;BME280;26385;48.470;7.938;2022-09-25T07:12:28;99557.09;;;14.66;99.71
20755;BME280;26385;48.470;7.938;2022-09-25T07:14:53;99554.50;;;14.64;99.03
20755;BME280;26385;48.470;7.938;2022-09-25T07:17:19;99554.44;;;14.70;99.06
20755;BME280;26385;48.470;7.938;2022-09-25T07:19:44;99557.94;;;14.72;98.91
20755;BME280;26385;48.470;7.938;2022-09-25T07:22:09;99554.44;;;14.73;98.70
20755;BME280;26385;48.470;7.938;2022-09-25T07:24:36;99546.59;;;14.78;99.09
20755;BME280;26385;48.470;7.938;2022-09-25T07:27:03;99553.53;;;14.82;99.35
20755;BME280;26385;48.470;7.938;2022-09-25T07:29:28;99551.72;;;14.91;99.28
20755;BME280;26385;48.470;7.938;2022-09-25T07:31:53;99558.63;;;14.99;97.68
20755;BME280;26385;48.470;7.938;2022-09-25T07:34:18;99558.63;;;14.99;97.58
20755;BME280;26385;48.470;7.938;2022-09-25T07:36:44;99554.25;;;15.01;97.08
20755;BME280;26385;48.470;7.938;2022-09-25T07:39:10;99560.34;;;15.00;97.32
20755;BME280;26385;48.470;7.938;2022-09-25T07:41:35;99562.13;;;14.93;97.12
20755;BME280;26385;48.470;7.938;2022-09-25T07:44:02;99569.09;;;14.92;97.76
20755;BME280;26385;48.470;7.938;2022-09-25T07:46:27;99563.00;;;14.93;97.80
20755;BME280;26385;48.470;7.938;2022-09-25T07:48:53;99567.34;;;14.95;97.54
20755;BME280;26385;48.470;7.938;2022-09-25T07:51:19;99569.00;;;15.08;96.96
20755;BME280;26385;48.470;7.938;2022-09-25T07:53:47;99566.41;;;15.02;97.08
20755;BME280;26385;48.470;7.938;2022-09-25T07:56:13;99565.53;;;15.04;96.84
20755;BME280;26385;48.470;7.938;2022-09-25T07:58:39;99570.75;;;15.03;97.01
20755;BME280;26385;48.470;7.938;2022-09-25T08:01:07;99565.53;;;15.06;97.17
20755;BME280;26385;48.470;7.938;2022-09-25T08:03:33;99556.81;;;15.08;97.47
20755;BME280;26385;48.470;7.938;2022-09-25T08:06:07;99552.44;;;15.15;96.98
20755;BME280;26385;48.470;7.938;2022-09-25T08:08:38;99557.56;;;15.24;96.50
20755;BME280;26385;48.470;7.938;2022-09-25T08:11:09;99555.78;;;15.31;95.52
20755;BME280;26385;48.470;7.938;2022-09-25T08:13:35;99551.34;;;15.37;95.27
20755;BME280;26385;48.470;7.938;2022-09-25T08:16:07;99557.34;;;15.50;94.67
20755;BME280;26385;48.470;7.938;2022-09-25T08:18:37;99554.63;;;15.62;94.52
20755;BME280;26385;48.470;7.938;2022-09-25T08:21:03;99553.69;;;15.71;94.20
20755;BME280;26385;48.470;7.938;2022-09-25T08:23:29;99551.03;;;15.77;92.92
20755;BME280;26385;48.470;7.938;2022-09-25T08:25:55;99557.06;;;15.82;92.52
20755;BME280;26385;48.470;7.938;2022-09-25T08:28:20;99561.38;;;15.85;92.17
20755;BME280;26385;48.470;7.938;2022-09-25T08:30:47;99557.06;;;15.84;91.57
20755;BME280;26385;48.470;7.938;2022-09-25T08:33:12;99560.47;;;15.87;91.77
20755;BME280;26385;48.470;7.938;2022-09-25T08:35:38;99557.03;;;15.85;91.47
20755;BME280;26385;48.470;7.938;2022-09-25T08:38:05;99556.13;;;15.88;91.69
20755;BME280;26385;48.470;7.938;2022-09-25T08:40:31;99557.00;;;15.88;91.32
20755;BME280;26385;48.470;7.938;2022-09-25T08:42:58;99556.09;;;15.92;91.17
20755;BME280;26385;48.470;7.938;2022-09-25T08:45:36;99549.97;;;15.93;90.56
20755;BME280;26385;48.470;7.938;2022-09-25T08:48:30;99547.34;;;15.98;90.54
20755;BME280;26385;48.470;7.938;2022-09-25T08:51:15;99553.34;;;16.06;89.78
20755;BME280;26385;48.470;7.938;2022-09-25T08:53:41;99548.00;;;16.14;89.03
20755;BME280;26385;48.470;7.938;2022-09-25T08:56:11;99551.47;;;16.17;87.80
20755;BME280;26385;48.470;7.938;2022-09-25T08:59:00;99550.47;;;16.26;87.19
20755;BME280;26385;48.470;7.938;2022-09-25T09:01:42;99542.56;;;16.30;85.75
20755;BME280;26385;48.470;7.938;2022-09-25T09:06:40;99547.63;;;16.44;85.22
20755;BME280;26385;48.470;7.938;2022-09-25T09:09:12;99553.66;;;16.49;85.75
20755;BME280;26385;48.470;7.938;2022-09-25T09:12:05;99542.19;;;16.59;85.70
20755;BME280;26385;48.470;7.938;2022-09-25T09:14:38;99546.03;;;16.97;85.17
20755;BME280;26385;48.470;7.938;2022-09-25T09:17:16;99547.09;;;17.41;82.56
20755;BME280;26385;48.470;7.938;2022-09-25T09:19:53;99543.81;;;17.79;80.33
20755;BME280;26385;48.470;7.938;2022-09-25T09:22:33;99552.00;;;18.09;78.21
20755;BME280;26385;48.470;7.938;2022-09-25T09:30:31;99551.22;;;18.87;72.61
20755;BME280;26385;48.470;7.938;2022-09-25T09:35:58;99547.03;;;18.37;73.71
20755;BME280;26385;48.470;7.938;2022-09-25T09:38:35;99551.09;;;18.10;74.09
20755;BME280;26385;48.470;7.938;2022-09-25T09:44:02;99546.28;;;17.87;74.36
20755;BME280;26385;48.470;7.938;2022-09-25T09:46:44;99553.16;;;17.94;73.93
20755;BME280;26385;48.470;7.938;2022-09-25T09:49:20;99549.38;;;18.07;73.48
20755;BME280;26385;48.470;7.938;2022-09-25T09:52:10;99545.56;;;18.23;72.92
20755;BME280;26385;48.470;7.938;2022-09-25T09:55:07;99543.63;;;18.33;71.72
20755;BME280;26385;48.470;7.938;2022-09-25T09:57:47;99547.91;;;18.37;71.46
20755;BME280;26385;48.470;7.938;2022-09-25T10:00:17;99544.50;;;18.34;71.63
20755;BME280;26385;48.470;7.938;2022-09-25T10:05:38;99544.53;;;18.72;69.50
20755;BME280;26385;48.470;7.938;2022-09-25T10:08:05;99550.34;;;18.87;68.50
20755;BME280;26385;48.470;7.938;2022-09-25T10:10:35;99537.03;;;18.96;68.08
20755;BME280;26385;48.470;7.938;2022-09-25T10:13:02;99543.41;;;19.21;66.32
20755;BME280;26385;48.470;7.938;2022-09-25T10:15:41;99532.22;;;19.13;64.57
20755;BME280;26385;48.470;7.938;2022-09-25T10:18:09;99538.47;;;19.09;65.56
20755;BME280;26385;48.470;7.938;2022-09-25T10:20:41;99528.69;;;19.14;66.58
20755;BME280;26385;48.470;7.938;2022-09-25T10:23:21;99531.53;;;19.05;67.04
20755;BME280;26385;48.470;7.938;2022-09-25T10:25:49;99528.25;;;18.97;67.63
20755;BME280;26385;48.470;7.938;2022-09-25T10:28:30;99532.88;;;18.86;67.00
20755;BME280;26385;48.470;7.938;2022-09-25T10:30:57;99534.88;;;18.76;66.75
20755;BME280;26385;48.470;7.938;2022-09-25T10:33:29;99529.78;;;18.68;66.71
20755;BME280;26385;48.470;7.938;2022-09-25T10:35:55;99530.69;;;18.67;66.62
20755;BME280;26385;48.470;7.938;2022-09-25T10:41:05;99536.06;;;18.58;64.63
20755;BME280;26385;48.470;7.938;2022-09-25T10:43:30;99531.03;;;18.49;64.98
20755;BME280;26385;48.470;7.938;2022-09-25T10:46:12;99537.13;;;18.49;65.87
20755;BME280;26385;48.470;7.938;2022-09-25T10:48:39;99532.63;;;18.56;66.65
20755;BME280;26385;48.470;7.938;2022-09-25T10:51:24;99535.16;;;18.61;66.88
20755;BME280;26385;48.470;7.938;2022-09-25T10:54:10;99527.34;;;18.57;66.60
20755;BME280;26385;48.470;7.938;2022-09-25T10:56:36;99529.34;;;18.46;65.81
20755;BME280;26385;48.470;7.938;2022-09-25T10:59:17;99532.97;;;18.41;65.95
20755;BME280;26385;48.470;7.938;2022-09-25T11:01:43;99533.00;;;18.39;66.51
20755;BME280;26385;48.470;7.938;2022-09-25T11:04:21;99534.72;;;18.42;67.55
20755;BME280;26385;48.470;7.938;2022-09-25T11:06:50;99535.47;;;18.47;67.78
20755;BME280;26385;48.470;7.938;2022-09-25T11:09:20;99539.88;;;18.45;67.81
20755;BME280;26385;48.470;7.938;2022-09-25T11:11:47;99532.88;;;18.45;67.91
20755;BME280;26385;48.470;7.938;2022-09-25T11:14:25;99530.41;;;18.38;67.54
20755;BME280;26385;48.470;7.938;2022-09-25T11:16:54;99536.63;;;18.32;67.59
20755;BME280;26385;48.470;7.938;2022-09-25T11:19:34;99536.63;;;18.32;68.03
20755;BME280;26385;48.470;7.938;2022-09-25T11:24:56;99553.78;;;18.05;72.22
20755;BME280;26385;48.470;7.938;2022-09-25T11:27:32;99543.47;;;17.97;72.27
20755;BME280;26385;48.470;7.938;2022-09-25T11:35:32;99536.13;;;17.68;73.71
20755;BME280;26385;48.470;7.938;2022-09-25T11:38:27;99544.06;;;17.64;75.38
20755;BME280;26385;48.470;7.938;2022-09-25T11:41:33;99550.28;;;17.58;75.84
20755;BME280;26385;48.470;7.938;2022-09-25T11:46:51;99547.81;;;17.49;75.47
20755;BME280;26385;48.470;7.938;2022-09-25T11:49:25;99552.25;;;17.44;75.58
20755;BME280;26385;48.470;7.938;2022-09-25T11:57:29;99547.97;;;17.40;77.16
20755;BME280;26385;48.470;7.938;2022-09-25T12:00:27;99547.97;;;17.40;77.30
20755;BME280;26385;48.470;7.938;2022-09-25T12:03:20;99552.03;;;17.56;79.88
20755;BME280;26385;48.470;7.938;2022-09-25T12:06:22;99545.81;;;17.63;78.31
20755;BME280;26385;48.470;7.938;2022-09-25T12:11:51;99545.22;;;17.97;79.28
20755;BME280;26385;48.470;7.938;2022-09-25T12:14:29;99548.66;;;18.00;76.91
20755;BME280;26385;48.470;7.938;2022-09-25T12:17:22;99546.59;;;18.16;78.03
20755;BME280;26385;48.470;7.938;2022-09-25T12:20:20;99537.06;;;18.12;75.36
20755;BME280;26385;48.470;7.938;2022-09-25T12:25:49;99526.34;;;18.24;76.03
20755;BME280;26385;48.470;7.938;2022-09-25T12:28:41;99536.81;;;18.24;76.12
20755;BME280;26385;48.470;7.938;2022-09-25T12:31:21;99525.28;;;18.32;75.88
20755;BME280;26385;48.470;7.938;2022-09-25T12:34:07;99522.03;;;18.20;74.62
20755;BME280;26385;48.470;7.938;2022-09-25T12:36:46;99532.00;;;18.03;75.51
20755;BME280;26385;48.470;7.938;2022-09-25T12:39:24;99526.13;;;17.92;75.18
20755;BME280;26385;48.470;7.938;2022-09-25T12:42:01;99524.53;;;17.83;76.10
20755;BME280;26385;48.470;7.938;2022-09-25T12:44:38;99522.94;;;17.76;76.44
20755;BME280;26385;48.470;7.938;2022-09-25T12:47:14;99515.09;;;17.75;75.72
20755;BME280;26385;48.470;7.938;2022-09-25T12:49:50;99518.66;;;17.70;76.50
20755;BME280;26385;48.470;7.938;2022-09-25T12:52:34;99522.13;;;17.69;76.93
20755;BME280;26385;48.470;7.938;2022-09-25T12:55:09;99516.81;;;17.76;76.18
20755;BME280;26385;48.470;7.938;2022-09-25T12:57:44;99520.28;;;17.78;75.70
20755;BME280;26385;48.470;7.938;2022-09-25T13:00:21;99519.38;;;17.79;75.34
20755;BME280;26385;48.470;7.938;2022-09-25T13:06:08;99505.16;;;17.90;73.40
20755;BME280;26385;48.470;7.938;2022-09-25T13:08:49;99509.38;;;17.97;73.79
20755;BME280;26385;48.470;7.938;2022-09-25T13:13:49;99510.38;;;17.93;72.83
20755;BME280;26385;48.470;7.938;2022-09-25T13:16:17;99506.06;;;17.89;72.31
20755;BME280;26385;48.470;7.938;2022-09-25T13:18:47;99509.66;;;17.85;71.48
20755;BME280;26385;48.470;7.938;2022-09-25T13:21:30;99506.06;;;17.89;72.07
20755;BME280;26385;48.470;7.938;2022-09-25T13:23:56;99504.31;;;17.91;72.41
20755;BME280;26385;48.470;7.938;2022-09-25T13:26:24;99504.25;;;17.93;73.09
20755;BME280;26385;48.470;7.938;2022-09-25T13:29:12;99512.16;;;17.90;73.15
20755;BME280;26385;48.470;7.938;2022-09-25T13:31:40;99504.63;;;17.75;73.69
20755;BME280;26385;48.470;7.938;2022-09-25T13:34:13;99508.19;;;17.69;72.92
20755;BME280;26385;48.470;7.938;2022-09-25T13:36:47;99497.78;;;17.64;72.68
20755;BME280;26385;48.470;7.938;2022-09-25T13:39:21;99496.88;;;17.65;73.38
20755;BME280;26385;48.470;7.938;2022-09-25T13:42:28;99497.66;;;17.24;75.40
20755;BME280;26385;48.470;7.938;2022-09-25T13:48:12;99499.66;;;17.56;74.45
20755;BME280;26385;48.470;7.938;2022-09-25T13:54:02;99498.50;;;17.76;74.73
20755;BME280;26385;48.470;7.938;2022-09-25T14:01:56;99493.97;;;17.84;74.26
20755;BME280;26385;48.470;7.938;2022-09-25T14:04:28;99493.09;;;17.83;73.58
20755;BME280;26385;48.470;7.938;2022-09-25T14:07:02;99489.72;;;17.77;73.87
20755;BME280;26385;48.470;7.938;2022-09-25T14:09:30;99483.72;;;17.71;73.22
20755;BME280;26385;48.470;7.938;2022-09-25T14:12:12;99479.47;;;18.09;72.46
20755;BME280;26385;48.470;7.938;2022-09-25T14:19:40;99477.03;;;18.00;78.36
20755;BME280;26385;48.470;7.938;2022-09-25T14:22:06;99479.91;;;18.29;73.73
20755;BME280;26385;48.470;7.938;2022-09-25T14:24:32;99474.75;;;18.65;72.08
20755;BME280;26385;48.470;7.938;2022-09-25T14:26:59;99474.81;;;18.99;71.67
20755;BME280;26385;48.470;7.938;2022-09-25T14:29:38;99472.69;;;18.79;70.27
20755;BME280;26385;48.470;7.938;2022-09-25T14:32:35;99465.84;;;18.72;69.60
20755;BME280;26385;48.470;7.938;2022-09-25T14:43:44;99467.88;;;17.78;73.24
20755;BME280;26385;48.470;7.938;2022-09-25T14:46:15;99462.06;;;18.05;72.97
20755;BME280;26385;48.470;7.938;2022-09-25T14:48:51;99475.66;;;17.81;72.08
20755;BME280;26385;48.470;7.938;2022-09-25T14:51:38;99477.03;;;18.00;72.56
20755;BME280;26385;48.470;7.938;2022-09-25T14:54:06;99474.28;;;18.06;71.95